Time;durP1;ratioP1;P1;durP2;ratioP2;P2;SDS_P1;SDS_P2;PMS_P1;PMS_P2;Temp;Humidity;BMP_temperature;BMP_pressure;BME280_temperature;BME280_humidity;BME280_pressure;Samples;Min_cycle;Max_cycle;Signal;HPM_P1;HPM_P2
2023/02/15 00:00:13;;;;;;;16.20;12.38;;;8.50;80.70;;;;;;4859698;29;20033;-80
2023/02/15 00:02:39;;;;;;;15.75;12.45;;;8.40;80.70;;;;;;4849288;29;20065;-80
2023/02/15 00:05:06;;;;;;;17.27;12.35;;;8.40;80.70;;;;;;4858413;29;20034;-80
2023/02/15 00:07:32;;;;;;;16.15;11.50;;;8.40;80.70;;;;;;4843401;29;20183;-80
2023/02/15 00:09:58;;;;;;;16.52;13.13;;;8.40;80.70;;;;;;4866878;29;20044;-79
2023/02/15 00:12:23;;;;;;;15.65;12.60;;;8.40;80.70;;;;;;4846435;29;20395;-79
2023/02/15 00:14:49;;;;;;;15.68;11.95;;;8.30;80.60;;;;;;4845463;29;20181;-80
2023/02/15 00:17:15;;;;;;;16.67;12.73;;;8.30;80.60;;;;;;4812995;29;20030;-81
2023/02/15 00:19:41;;;;;;;14.25;11.73;;;8.20;80.60;;;;;;4851547;29;20128;-79
2023/02/15 00:22:07;;;;;;;16.15;12.32;;;8.20;80.70;;;;;;4855536;29;20037;-80
2023/02/15 00:24:32;;;;;;;15.88;11.90;;;8.20;80.60;;;;;;4865956;29;20037;-80
2023/02/15 00:26:58;;;;;;;14.95;12.07;;;8.20;80.60;;;;;;4859847;29;20212;-79
2023/02/15 00:29:24;;;;;;;14.88;11.35;;;8.20;80.70;;;;;;4859366;29;20062;-78
2023/02/15 00:31:51;;;;;;;15.38;12.18;;;8.10;80.60;;;;;;4856544;29;20656;-79
2023/02/15 00:34:20;;;;;;;13.73;11.80;;;8.10;80.70;;;;;;4839656;29;20478;-85
2023/02/15 00:36:47;;;;;;;16.27;12.15;;;8.10;80.70;;;;;;4856243;29;20080;-79
2023/02/15 00:39:15;;;;;;;16.85;12.35;;;8.10;80.70;;;;;;4830207;29;20033;-81
2023/02/15 00:41:41;;;;;;;15.18;11.00;;;8.10;80.70;;;;;;4843993;29;20029;-80
2023/02/15 00:44:07;;;;;;;14.95;11.70;;;8.00;80.70;;;;;;4859057;29;20045;-80
2023/02/15 00:46:33;;;;;;;14.30;12.10;;;7.90;80.70;;;;;;4842703;29;20064;-79
2023/02/15 00:48:59;;;;;;;15.75;12.30;;;7.90;80.70;;;;;;4819818;29;20133;-79
2023/02/15 00:51:26;;;;;;;15.90;12.02;;;7.90;80.70;;;;;;4859573;29;20124;-78
2023/02/15 00:53:52;;;;;;;14.02;11.32;;;7.90;80.80;;;;;;4860889;29;20094;-78
2023/02/15 00:56:18;;;;;;;14.60;11.73;;;7.90;80.70;;;;;;4831761;29;20029;-79
2023/02/15 00:58:44;;;;;;;15.35;11.40;;;7.80;80.70;;;;;;4826345;29;20037;-78
2023/02/15 01:01:16;;;;;;;15.30;11.93;;;7.80;80.70;;;;;;4837136;29;20037;-79
2023/02/15 01:03:42;;;;;;;15.27;11.98;;;7.80;80.80;;;;;;4859863;29;20034;-79
2023/02/15 01:06:09;;;;;;;13.77;11.38;;;7.80;80.70;;;;;;4833513;29;20029;-78
2023/02/15 01:08:35;;;;;;;13.82;10.75;;;7.70;80.70;;;;;;4826480;29;20484;-79
2023/02/15 01:11:10;;;;;;;15.50;11.93;;;7.70;80.70;;;;;;4844480;29;20143;-81
2023/02/15 01:13:36;;;;;;;13.60;10.25;;;7.70;80.70;;;;;;4843662;29;20030;-79
2023/02/15 01:16:03;;;;;;;14.55;11.35;;;7.60;80.70;;;;;;4852405;29;20037;-79
2023/02/15 01:18:30;;;;;;;15.77;11.23;;;7.60;80.70;;;;;;4844332;29;20030;-79
2023/02/15 01:20:56;;;;;;;14.35;10.88;;;7.60;80.70;;;;;;4870120;29;20053;-80
2023/02/15 01:23:21;;;;;;;14.55;11.20;;;7.60;80.70;;;;;;4858636;29;20042;-80
2023/02/15 01:25:47;;;;;;;14.77;10.68;;;7.50;80.70;;;;;;4859654;29;20041;-79
2023/02/15 01:28:13;;;;;;;14.52;11.20;;;7.50;80.70;;;;;;4846768;29;20034;-79
2023/02/15 01:30:39;;;;;;;14.20;11.15;;;7.50;81.30;;;;;;4823749;29;20038;-79
2023/02/15 01:33:05;;;;;;;13.75;10.88;;;7.50;80.70;;;;;;4829175;29;20065;-78
2023/02/15 01:35:30;;;;;;;14.15;10.65;;;7.40;80.60;;;;;;4846759;29;20068;-79
2023/02/15 01:37:57;;;;;;;15.00;11.50;;;7.40;80.70;;;;;;4856201;29;20459;-79
2023/02/15 01:40:23;;;;;;;14.52;10.45;;;7.40;80.70;;;;;;4843806;29;20484;-85
2023/02/15 01:42:53;;;;;;;14.10;10.90;;;7.30;80.70;;;;;;4858156;29;20132;-79
2023/02/15 01:45:31;;;;;;;14.63;10.98;;;7.30;80.80;;;;;;4842115;29;20037;-79
2023/02/15 01:48:03;;;;;;;14.25;10.60;;;7.30;80.80;;;;;;4861649;29;20029;-83
2023/02/15 01:50:36;;;;;;;13.85;10.43;;;7.20;80.70;;;;;;4856895;29;20048;-81
2023/02/15 01:53:12;;;;;;;14.73;10.80;;;7.20;80.80;;;;;;4856775;29;20295;-81
2023/02/15 01:55:46;;;;;;;13.25;10.63;;;7.20;80.80;;;;;;4843253;29;20471;-81
2023/02/15 01:58:15;;;;;;;11.88;9.93;;;7.20;80.80;;;;;;4862421;29;20065;-79
2023/02/15 02:00:41;;;;;;;13.95;10.88;;;7.10;80.70;;;;;;4829746;29;20471;-81
2023/02/15 02:03:08;;;;;;;14.77;11.05;;;7.10;80.70;;;;;;4846804;29;20092;-81
2023/02/15 02:05:34;;;;;;;13.90;11.05;;;7.10;80.70;;;;;;4825233;29;20038;-82
2023/02/15 02:08:02;;;;;;;13.63;10.70;;;7.10;80.70;;;;;;4842105;29;20368;-79
2023/02/15 02:10:28;;;;;;;13.07;10.23;;;7.00;80.70;;;;;;4848977;29;20038;-82
2023/02/15 02:12:59;;;;;;;13.88;10.95;;;7.10;80.80;;;;;;4856831;29;20040;-81
2023/02/15 02:15:47;;;;;;;14.25;11.35;;;7.00;80.80;;;;;;4856547;29;20048;-82
2023/02/15 02:18:39;;;;;;;12.68;9.82;;;7.00;80.80;;;;;;4836583;29;20038;-81
2023/02/15 02:21:48;;;;;;;14.88;10.63;;;6.90;80.80;;;;;;4851963;29;20029;-81
2023/02/15 02:24:31;;;;;;;12.52;10.07;;;6.90;80.80;;;;;;4855983;29;20045;-80
2023/02/15 02:27:27;;;;;;;13.48;10.05;;;6.90;80.80;;;;;;4858413;29;20555;-81
2023/02/15 02:30:14;;;;;;;12.98;9.55;;;6.80;80.80;;;;;;4845865;29;20467;-79
2023/02/15 02:33:15;;;;;;;12.85;9.80;;;6.80;80.80;;;;;;4850810;29;20034;-81
2023/02/15 02:35:48;;;;;;;12.77;9.88;;;6.70;80.80;;;;;;4852966;29;20566;-82
2023/02/15 02:38:32;;;;;;;12.80;9.70;;;6.80;80.80;;;;;;4858015;29;20038;-81
2023/02/15 02:41:16;;;;;;;11.95;9.43;;;6.70;80.80;;;;;;4857567;29;20030;-80
2023/02/15 02:43:56;;;;;;;12.68;10.20;;;6.70;80.80;;;;;;4861561;29;20025;-79
2023/02/15 02:46:32;;;;;;;12.75;9.70;;;6.70;80.80;;;;;;4863777;29;20037;-82
2023/02/15 02:48:58;;;;;;;13.15;9.55;;;6.70;80.80;;;;;;4853077;29;20030;-81
2023/02/15 02:51:24;;;;;;;14.02;10.18;;;6.60;80.80;;;;;;4841289;29;20550;-81
2023/02/15 02:53:55;;;;;;;11.93;9.38;;;6.60;80.80;;;;;;4849647;29;20054;-80
2023/02/15 02:56:28;;;;;;;11.57;9.20;;;6.60;80.80;;;;;;4877071;29;20066;-80
2023/02/15 02:58:56;;;;;;;12.48;9.65;;;6.60;80.80;;;;;;4852734;29;20068;-82
2023/02/15 03:01:27;;;;;;;13.07;10.20;;;6.60;80.80;;;;;;4873800;29;20040;-81
2023/02/15 03:04:14;;;;;;;12.45;9.40;;;6.60;81.40;;;;;;4861894;29;20025;-80
2023/02/15 03:06:51;;;;;;;12.18;9.18;;;6.50;80.80;;;;;;4855995;29;20386;-81
2023/02/15 03:09:41;;;;;;;12.82;9.70;;;6.50;80.80;;;;;;4856861;29;20125;-82
2023/02/15 03:12:16;;;;;;;12.43;10.23;;;6.50;80.80;;;;;;4849192;29;20094;-80
2023/02/15 03:14:51;;;;;;;12.13;9.45;;;6.40;80.70;;;;;;4837282;29;20037;-80
2023/02/15 03:17:21;;;;;;;12.20;9.10;;;6.40;80.80;;;;;;4852773;29;20036;-81
2023/02/15 03:19:48;;;;;;;12.35;9.27;;;6.40;80.80;;;;;;4856046;29;20109;-80
2023/02/15 03:22:20;;;;;;;11.25;8.98;;;6.40;80.80;;;;;;4858029;29;20037;-82
2023/02/15 03:25:10;;;;;;;12.43;9.68;;;6.40;80.80;;;;;;4859402;29;20120;-81
2023/02/15 03:27:43;;;;;;;11.93;8.93;;;6.30;80.80;;;;;;4857536;29;20029;-81
2023/02/15 03:30:11;;;;;;;12.48;9.63;;;6.30;80.70;;;;;;4841306;29;20038;-79
2023/02/15 03:32:39;;;;;;;12.57;9.65;;;6.30;80.80;;;;;;4855977;29;20247;-81
2023/02/15 03:35:06;;;;;;;11.52;9.77;;;6.30;80.80;;;;;;4841070;29;20523;-79
2023/02/15 03:37:47;;;;;;;14.65;9.98;;;6.30;80.80;;;;;;4845928;29;20110;-82
2023/02/15 03:43:48;;;;;;;12.93;9.70;;;6.30;80.80;;;;;;4855040;29;20515;-79
2023/02/15 03:46:25;;;;;;;11.50;9.10;;;6.20;80.80;;;;;;4855726;29;20129;-80
2023/02/15 03:49:03;;;;;;;12.20;9.50;;;6.20;80.80;;;;;;4854730;29;20033;-81
2023/02/15 03:51:33;;;;;;;11.35;9.10;;;6.10;80.70;;;;;;4854481;29;20558;-81
2023/02/15 03:54:38;;;;;;;12.63;9.45;;;6.10;80.80;;;;;;4858831;29;20491;-82
2023/02/15 04:03:03;;;;;;;11.77;9.23;;;6.10;80.80;;;;;;4848974;29;21738;-82
2023/02/15 04:05:29;;;;;;;11.95;8.68;;;6.10;80.80;;;;;;4857720;29;20116;-82
2023/02/15 04:07:54;;;;;;;11.40;8.82;;;6.00;80.70;;;;;;4839202;29;20117;-80
2023/02/15 04:13:04;;;;;;;13.43;9.93;;;6.00;80.80;;;;;;4857992;29;20037;-83
2023/02/15 04:18:14;;;;;;;11.77;8.82;;;5.90;80.80;;;;;;4873136;29;20042;-79
2023/02/15 04:26:13;;;;;;;12.82;9.70;;;5.90;80.80;;;;;;4846655;29;20136;-81
2023/02/15 04:28:38;;;;;;;11.85;9.13;;;5.80;80.70;;;;;;4832979;29;20124;-81
2023/02/15 04:31:04;;;;;;;11.52;8.98;;;5.80;80.80;;;;;;4826086;29;20042;-81
2023/02/15 04:33:30;;;;;;;14.18;9.80;;;5.80;80.70;;;;;;4845335;29;20467;-81
2023/02/15 04:35:56;;;;;;;11.35;8.27;;;5.80;80.70;;;;;;4838522;29;20089;-82
2023/02/15 04:38:22;;;;;;;11.30;9.23;;;5.80;80.70;;;;;;4854116;29;20053;-81
2023/02/15 04:40:51;;;;;;;12.57;9.45;;;5.80;80.70;;;;;;4862619;29;20029;-80
2023/02/15 04:43:18;;;;;;;13.10;9.75;;;5.80;80.70;;;;;;4846533;29;20144;-81
2023/02/15 04:45:51;;;;;;;11.82;9.05;;;5.70;80.70;;;;;;4843021;29;20041;-79
2023/02/15 04:48:17;;;;;;;12.13;9.35;;;5.70;80.70;;;;;;4843959;29;20090;-81
2023/02/15 04:50:44;;;;;;;11.07;9.23;;;5.70;80.70;;;;;;4859317;29;20025;-82
2023/02/15 04:53:10;;;;;;;12.15;9.15;;;5.70;80.70;;;;;;4847764;29;20141;-83
2023/02/15 04:55:36;;;;;;;12.40;9.40;;;5.70;80.70;;;;;;4864158;29;20605;-82
2023/02/15 04:58:02;;;;;;;11.82;8.45;;;5.70;80.70;;;;;;4862241;29;20120;-82
2023/02/15 05:00:28;;;;;;;11.43;8.45;;;5.60;80.90;;;;;;4846766;29;20443;-82
2023/02/15 05:02:53;;;;;;;12.93;9.07;;;5.60;80.70;;;;;;4839761;29;20026;-80
2023/02/15 05:05:19;;;;;;;12.05;9.00;;;5.60;80.70;;;;;;4859067;29;20042;-81
2023/02/15 05:07:45;;;;;;;11.63;9.10;;;5.60;80.70;;;;;;4843458;29;20038;-80
2023/02/15 05:10:10;;;;;;;11.90;8.77;;;5.60;80.70;;;;;;4843578;29;20105;-80
2023/02/15 05:12:36;;;;;;;11.82;8.88;;;5.50;80.60;;;;;;4855006;29;20471;-81
2023/02/15 05:15:02;;;;;;;12.38;9.45;;;5.50;80.70;;;;;;4858370;29;20042;-81
2023/02/15 05:17:28;;;;;;;12.27;9.40;;;5.50;80.70;;;;;;4843942;29;20049;-82
2023/02/15 05:19:54;;;;;;;12.95;9.55;;;5.50;80.70;;;;;;4873424;29;20535;-80
2023/02/15 05:22:19;;;;;;;11.25;8.80;;;5.50;80.70;;;;;;4846929;29;20101;-82
2023/02/15 05:30:14;;;;;;;12.57;9.60;;;5.40;80.60;;;;;;4872220;29;20045;-82
2023/02/15 05:32:40;;;;;;;10.85;8.52;;;5.40;80.60;;;;;;4857245;29;20052;-81
2023/02/15 05:35:07;;;;;;;11.10;8.48;;;5.40;80.60;;;;;;4856990;29;20074;-83
2023/02/15 05:37:33;;;;;;;11.98;9.02;;;5.40;80.60;;;;;;4856111;29;20053;-81
2023/02/15 05:39:59;;;;;;;12.57;9.45;;;5.40;80.70;;;;;;4856645;29;20041;-81
2023/02/15 05:42:24;;;;;;;12.20;9.20;;;5.30;80.60;;;;;;4837756;29;20609;-82
2023/02/15 05:44:53;;;;;;;11.93;9.25;;;5.30;80.60;;;;;;4846588;29;20033;-82
2023/02/15 05:47:18;;;;;;;11.05;8.82;;;5.30;80.60;;;;;;4845346;29;20033;-81
2023/02/15 05:49:44;;;;;;;12.30;8.55;;;5.40;80.70;;;;;;4853496;29;20094;-81
2023/02/15 05:52:11;;;;;;;13.13;9.85;;;5.30;80.60;;;;;;4859725;29;20037;-82
2023/02/15 05:54:37;;;;;;;11.40;9.02;;;5.30;80.60;;;;;;4842119;29;20041;-82
2023/02/15 05:57:03;;;;;;;12.75;9.65;;;5.30;80.60;;;;;;4841472;29;20033;-81
2023/02/15 05:59:29;;;;;;;11.82;9.35;;;5.20;80.60;;;;;;4841497;29;20074;-82
2023/02/15 06:01:55;;;;;;;12.45;9.27;;;5.20;80.60;;;;;;4857247;29;20090;-81
2023/02/15 06:04:20;;;;;;;11.27;8.40;;;5.20;80.60;;;;;;4842208;29;20037;-85
2023/02/15 06:06:46;;;;;;;11.60;8.48;;;5.20;80.60;;;;;;4843753;29;20029;-80
2023/02/15 06:09:12;;;;;;;12.15;8.88;;;5.20;80.60;;;;;;4836656;29;20038;-84
2023/02/15 06:11:38;;;;;;;12.00;9.40;;;5.20;80.60;;;;;;4842506;29;20024;-81
2023/02/15 06:14:04;;;;;;;11.38;8.35;;;5.20;80.60;;;;;;4842700;29;20090;-77
2023/02/15 06:16:30;;;;;;;11.98;9.15;;;5.20;80.60;;;;;;4846287;29;20480;-79
2023/02/15 06:18:56;;;;;;;11.90;8.82;;;5.10;80.50;;;;;;4825301;29;20124;-81
2023/02/15 06:21:22;;;;;;;13.00;9.68;;;5.10;80.50;;;;;;4830500;29;20116;-81
2023/02/15 06:23:47;;;;;;;11.77;8.85;;;5.10;80.50;;;;;;4842470;29;20400;-80
2023/02/15 06:26:13;;;;;;;11.93;9.30;;;5.10;80.50;;;;;;4839062;29;20030;-80
2023/02/15 06:28:40;;;;;;;12.55;9.50;;;5.10;80.50;;;;;;4811647;29;20128;-80
2023/02/15 06:31:06;;;;;;;12.60;9.07;;;5.10;80.50;;;;;;4846533;29;20649;-80
2023/02/15 06:33:33;;;;;;;10.90;8.32;;;5.00;80.50;;;;;;4861329;29;20029;-80
2023/02/15 06:36:00;;;;;;;11.98;9.10;;;5.00;80.60;;;;;;4820677;29;20137;-79
2023/02/15 06:38:26;;;;;;;10.48;7.95;;;5.00;80.50;;;;;;4859334;29;20046;-80
2023/02/15 06:40:52;;;;;;;12.07;9.05;;;5.00;80.50;;;;;;4846492;29;20466;-83
2023/02/15 06:43:18;;;;;;;12.27;9.00;;;5.00;80.50;;;;;;4846249;29;20037;-81
2023/02/15 06:45:44;;;;;;;11.10;8.32;;;5.00;80.60;;;;;;4864489;29;20368;-80
2023/02/15 06:48:10;;;;;;;10.20;8.13;;;5.00;80.50;;;;;;4859433;29;20044;-79
2023/02/15 06:50:37;;;;;;;11.70;8.75;;;5.00;80.60;;;;;;4851108;29;20029;-79
2023/02/15 06:53:02;;;;;;;11.73;9.48;;;4.90;80.50;;;;;;4857879;29;20033;-81
2023/02/15 06:55:28;;;;;;;11.57;8.88;;;5.00;80.50;;;;;;4843418;29;20040;-80
2023/02/15 06:57:54;;;;;;;12.40;9.10;;;4.90;80.50;;;;;;4858310;29;20130;-78
2023/02/15 07:00:21;;;;;;;11.95;9.13;;;4.90;80.50;;;;;;4860718;29;20044;-79
2023/02/15 07:02:47;;;;;;;11.70;9.57;;;4.90;80.50;;;;;;4841594;29;20026;-79
2023/02/15 07:05:13;;;;;;;12.90;9.57;;;4.90;80.50;;;;;;4870905;29;20049;-79
2023/02/15 07:07:39;;;;;;;11.50;8.70;;;4.80;80.50;;;;;;4844551;29;20033;-79
2023/02/15 07:10:06;;;;;;;12.43;8.80;;;4.80;80.50;;;;;;4846480;29;20358;-82
2023/02/15 07:12:45;;;;;;;12.10;9.52;;;4.80;80.50;;;;;;4827214;29;20036;-81
2023/02/15 07:15:22;;;;;;;12.95;9.02;;;4.80;80.50;;;;;;4855504;29;20394;-80
2023/02/15 07:17:48;;;;;;;12.68;9.07;;;4.80;80.50;;;;;;4857919;29;20403;-80
2023/02/15 07:20:21;;;;;;;12.20;8.88;;;4.70;80.50;;;;;;4841177;29;20446;-81
2023/02/15 07:22:47;;;;;;;12.48;9.43;;;4.70;80.50;;;;;;4854915;29;20028;-82
2023/02/15 07:25:13;;;;;;;13.05;9.05;;;4.80;80.50;;;;;;4842754;29;20046;-82
2023/02/15 07:27:40;;;;;;;13.38;9.95;;;4.70;80.50;;;;;;4861954;29;20041;-81
2023/02/15 07:30:08;;;;;;;14.13;9.95;;;4.70;80.50;;;;;;4858192;29;20688;-81
2023/02/15 07:32:34;;;;;;;12.30;9.63;;;4.70;80.50;;;;;;4857262;29;20146;-80
2023/02/15 07:35:00;;;;;;;13.25;9.77;;;4.70;80.50;;;;;;4853243;29;20124;-81
2023/02/15 07:37:27;;;;;;;13.48;9.88;;;4.70;80.50;;;;;;4857434;29;20073;-81
2023/02/15 07:39:53;;;;;;;12.80;9.05;;;4.70;80.50;;;;;;4843967;29;20044;-82
2023/02/15 07:42:20;;;;;;;12.85;9.73;;;4.70;80.50;;;;;;4844526;29;20033;-80
2023/02/15 07:44:46;;;;;;;13.07;9.23;;;4.60;80.50;;;;;;4845709;29;20033;-80
2023/02/15 07:47:12;;;;;;;10.55;8.82;;;4.70;80.50;;;;;;4859550;29;20436;-81
2023/02/15 07:49:38;;;;;;;13.52;9.90;;;4.70;80.50;;;;;;4837547;29;20034;-83
2023/02/15 07:52:04;;;;;;;13.40;10.40;;;4.60;80.50;;;;;;4811711;29;20386;-80
2023/02/15 07:54:30;;;;;;;12.38;9.68;;;4.60;80.50;;;;;;4876693;29;20564;-81
2023/02/15 07:56:55;;;;;;;13.52;9.93;;;4.60;80.50;;;;;;4863860;29;20041;-81
2023/02/15 07:59:21;;;;;;;13.73;9.43;;;4.60;80.50;;;;;;4828356;29;20033;-82
2023/02/15 08:01:47;;;;;;;12.15;9.25;;;4.60;80.40;;;;;;4854397;29;20030;-81
2023/02/15 08:04:13;;;;;;;15.18;9.88;;;4.70;80.50;;;;;;4860406;29;20045;-81
2023/02/15 08:06:39;;;;;;;14.80;10.13;;;4.60;80.40;;;;;;4844037;29;20093;-82
2023/02/15 08:09:09;;;;;;;14.88;10.15;;;4.70;80.50;;;;;;4858330;29;20032;-81
2023/02/15 08:11:37;;;;;;;13.25;10.23;;;4.70;80.50;;;;;;4848187;29;20065;-81
2023/02/15 08:14:32;;;;;;;14.15;10.15;;;4.60;80.40;;;;;;4861139;29;20029;-81
2023/02/15 08:17:02;;;;;;;13.05;9.45;;;4.60;80.40;;;;;;4849003;29;20076;-82
2023/02/15 08:19:30;;;;;;;14.27;10.18;;;4.70;80.40;;;;;;4868401;29;20040;-85
2023/02/15 08:22:01;;;;;;;13.95;9.98;;;4.60;80.40;;;;;;4823247;29;20053;-82
2023/02/15 08:24:30;;;;;;;14.50;10.73;;;4.60;80.40;;;;;;4854806;29;20030;-82
2023/02/15 08:26:56;;;;;;;14.07;10.40;;;4.70;80.50;;;;;;4867821;29;20466;-81
2023/02/15 08:29:24;;;;;;;14.50;10.48;;;4.60;80.40;;;;;;4847802;29;20038;-81
2023/02/15 08:31:53;;;;;;;14.98;10.30;;;4.60;80.40;;;;;;4859803;29;20026;-82
2023/02/15 08:34:20;;;;;;;13.27;10.15;;;4.70;80.50;;;;;;4860584;29;20356;-81
2023/02/15 08:36:46;;;;;;;13.30;10.15;;;4.70;80.50;;;;;;4853004;29;20061;-81
2023/02/15 08:39:14;;;;;;;14.73;10.75;;;4.70;80.40;;;;;;4860208;29;20423;-81
2023/02/15 08:41:42;;;;;;;14.60;10.75;;;4.70;81.10;;;;;;4845246;29;20128;-81
2023/02/15 08:44:10;;;;;;;14.15;10.57;;;4.70;80.50;;;;;;4860088;29;20071;-81
2023/02/15 08:46:38;;;;;;;15.07;10.93;;;4.70;80.40;;;;;;4856925;29;20018;-81
2023/02/15 08:49:04;;;;;;;13.95;10.05;;;4.70;80.50;;;;;;4841511;29;20029;-81
2023/02/15 08:51:32;;;;;;;14.48;10.65;;;4.70;80.50;;;;;;4842938;29;21723;-81
2023/02/15 08:54:04;;;;;;;14.15;10.98;;;4.70;80.50;;;;;;4860399;29;20076;-81
2023/02/15 08:56:33;;;;;;;15.20;11.15;;;4.80;80.50;;;;;;4860195;29;20046;-81
2023/02/15 08:58:59;;;;;;;14.15;9.93;;;4.80;80.50;;;;;;4865781;29;20459;-81
2023/02/15 09:01:27;;;;;;;14.65;10.23;;;4.70;80.50;;;;;;4859833;29;20041;-81
2023/02/15 09:04:02;;;;;;;14.50;10.35;;;4.80;80.50;;;;;;4856228;29;20029;-81
2023/02/15 09:06:28;;;;;;;13.85;10.60;;;4.80;80.60;;;;;;4864328;29;20040;-81
2023/02/15 09:08:55;;;;;;;14.65;9.98;;;4.80;80.50;;;;;;4844964;29;20021;-83
2023/02/15 09:11:26;;;;;;;13.40;10.15;;;4.80;80.50;;;;;;4856727;29;20033;-80
2023/02/15 09:13:55;;;;;;;16.13;11.15;;;4.90;80.50;;;;;;4860363;29;20502;-83
2023/02/15 09:16:22;;;;;;;15.02;10.63;;;4.90;80.50;;;;;;4843632;29;20045;-83
2023/02/15 09:18:48;;;;;;;14.05;10.07;;;4.90;80.50;;;;;;4843747;29;20388;-82
2023/02/15 09:21:17;;;;;;;14.90;10.85;;;4.90;80.50;;;;;;4859267;29;20035;-82
2023/02/15 09:23:45;;;;;;;13.75;10.07;;;4.90;80.50;;;;;;4847599;29;20030;-81
2023/02/15 09:26:17;;;;;;;13.68;9.98;;;5.00;80.60;;;;;;4839669;29;20109;-82
2023/02/15 09:28:43;;;;;;;15.77;10.88;;;5.00;80.60;;;;;;4859244;29;20501;-80
2023/02/15 09:31:14;;;;;;;13.43;10.65;;;5.00;80.50;;;;;;4859794;29;20108;-83
2023/02/15 09:33:41;;;;;;;15.00;11.15;;;5.10;80.60;;;;;;4842471;29;20454;-80
2023/02/15 09:36:25;;;;;;;16.67;11.57;;;5.10;80.60;;;;;;4858430;29;20089;-81
2023/02/15 09:38:59;;;;;;;15.00;10.95;;;5.10;80.60;;;;;;4857992;29;20083;-82
2023/02/15 09:41:33;;;;;;;14.35;11.25;;;5.10;80.50;;;;;;4859725;29;20148;-82
2023/02/15 09:44:27;;;;;;;14.20;9.85;;;5.20;80.60;;;;;;4839312;29;20085;-80
2023/02/15 09:47:31;;;;;;;15.30;10.80;;;5.20;80.60;;;;;;4858833;29;20029;-84
2023/02/15 09:50:21;;;;;;;14.93;10.45;;;5.30;80.60;;;;;;4855784;29;20026;-84
2023/02/15 09:53:15;;;;;;;14.10;9.95;;;5.30;80.60;;;;;;4833758;29;20526;-82
2023/02/15 09:55:59;;;;;;;14.20;10.60;;;5.30;80.70;;;;;;4870581;29;20044;-81
2023/02/15 09:58:50;;;;;;;15.98;11.23;;;5.30;80.50;;;;;;4865651;29;20466;-81
2023/02/15 10:01:22;;;;;;;14.15;10.80;;;5.40;80.70;;;;;;4860765;29;20038;-83
2023/02/15 10:03:56;;;;;;;14.55;11.10;;;5.40;80.60;;;;;;4861412;29;20030;-81
2023/02/15 10:06:24;;;;;;;14.73;11.20;;;5.50;80.70;;;;;;4861717;29;20037;-82
2023/02/15 10:09:19;;;;;;;15.80;11.82;;;5.50;80.60;;;;;;4858129;29;20116;-82
2023/02/15 10:11:57;;;;;;;14.00;10.32;;;5.60;80.60;;;;;;4843006;29;20053;-83
2023/02/15 10:15:06;;;;;;;15.57;11.25;;;5.60;80.60;;;;;;4862187;29;20474;-81
2023/02/15 10:17:44;;;;;;;14.00;10.30;;;5.70;80.70;;;;;;4857852;29;20120;-81
2023/02/15 10:20:19;;;;;;;15.60;11.18;;;5.70;80.60;;;;;;4850940;29;20054;-82
2023/02/15 10:23:08;;;;;;;14.57;10.82;;;5.80;80.70;;;;;;4848875;29;20088;-81
2023/02/15 10:25:47;;;;;;;14.48;11.05;;;5.80;80.80;;;;;;4859309;29;20062;-82
2023/02/15 10:28:19;;;;;;;16.08;11.77;;;5.90;80.80;;;;;;4863033;29;20021;-82
2023/02/15 10:30:51;;;;;;;16.70;11.45;;;5.90;80.70;;;;;;4865638;29;20029;-81
2023/02/15 10:33:40;;;;;;;16.95;11.63;;;6.00;80.90;;;;;;4860700;29;20034;-82
2023/02/15 10:36:32;;;;;;;15.23;11.07;;;6.00;80.90;;;;;;4859335;29;20074;-82
2023/02/15 10:39:23;;;;;;;14.20;10.45;;;6.10;80.90;;;;;;4842153;29;20064;-82
2023/02/15 10:41:59;;;;;;;15.57;11.73;;;6.10;80.90;;;;;;4865832;29;20064;-80
2023/02/15 10:44:37;;;;;;;15.35;11.23;;;6.20;80.90;;;;;;4865973;29;20093;-82
2023/02/15 10:47:15;;;;;;;15.55;11.77;;;6.30;80.90;;;;;;4858700;29;20113;-82
2023/02/15 10:49:59;;;;;;;15.13;11.57;;;6.30;81.00;;;;;;4860704;29;20514;-81
2023/02/15 10:52:35;;;;;;;15.82;11.73;;;6.40;80.90;;;;;;4862471;29;20534;-81
2023/02/15 10:55:22;;;;;;;15.73;12.13;;;6.50;81.00;;;;;;4862319;29;20045;-80
2023/02/15 10:58:19;;;;;;;15.57;11.13;;;6.50;81.00;;;;;;4859139;29;20071;-81
2023/02/15 11:01:08;;;;;;;15.90;11.55;;;6.60;81.10;;;;;;4864017;29;20041;-83
2023/02/15 11:03:55;;;;;;;16.67;12.15;;;6.60;81.00;;;;;;4860909;29;20558;-82
2023/02/15 11:06:22;;;;;;;18.63;12.23;;;6.70;81.10;;;;;;4858565;29;20029;-84
2023/02/15 11:08:54;;;;;;;16.60;12.38;;;6.80;81.00;;;;;;4861569;29;20038;-82
2023/02/15 11:11:44;;;;;;;15.63;12.13;;;6.90;81.10;;;;;;4866512;29;20037;-80
2023/02/15 11:14:31;;;;;;;16.20;12.77;;;6.90;81.20;;;;;;4868064;29;20037;-80
2023/02/15 11:17:02;;;;;;;15.80;11.85;;;7.00;81.20;;;;;;4845332;29;20394;-80
2023/02/15 11:19:34;;;;;;;19.85;13.65;;;7.00;81.20;;;;;;4864759;29;20428;-79
2023/02/15 11:22:03;;;;;;;17.17;12.70;;;7.10;81.20;;;;;;4857990;29;20546;-81
2023/02/15 11:24:31;;;;;;;15.80;12.43;;;7.10;81.30;;;;;;4842832;29;20059;-81
2023/02/15 11:27:02;;;;;;;17.45;12.52;;;7.20;81.30;;;;;;4858210;29;20033;-79
2023/02/15 11:29:33;;;;;;;17.30;12.02;;;7.30;81.40;;;;;;4857703;29;20431;-80
2023/02/15 11:32:21;;;;;;;22.80;13.40;;;7.40;81.50;;;;;;4859847;29;20033;-79
2023/02/15 11:35:02;;;;;;;17.98;13.13;;;7.40;81.60;;;;;;4857963;29;20506;-78
2023/02/15 11:37:51;;;;;;;18.08;13.35;;;7.50;81.70;;;;;;4858881;29;20054;-83
2023/02/15 11:40:30;;;;;;;17.77;12.70;;;7.50;81.70;;;;;;4857445;29;20055;-80
2023/02/15 11:43:03;;;;;;;17.13;12.65;;;7.60;81.70;;;;;;4862042;29;20568;-79
2023/02/15 11:45:31;;;;;;;18.45;13.38;;;7.60;81.60;;;;;;4861482;29;20439;-79
2023/02/15 11:47:58;;;;;;;18.17;13.57;;;7.70;81.70;;;;;;4862332;29;20037;-81
2023/02/15 11:50:27;;;;;;;20.23;14.00;;;7.80;81.90;;;;;;4876192;29;20033;-85
2023/02/15 11:52:58;;;;;;;20.88;14.27;;;7.80;81.90;;;;;;4864816;29;20040;-81
2023/02/15 11:55:25;;;;;;;19.55;13.90;;;7.90;82.00;;;;;;4869642;29;20040;-81
2023/02/15 11:58:21;;;;;;;19.52;14.60;;;7.90;81.90;;;;;;4848827;29;20022;-81
2023/02/15 12:00:49;;;;;;;19.17;13.63;;;8.00;82.20;;;;;;4869631;29;20467;-82
2023/02/15 12:03:28;;;;;;;18.77;14.10;;;8.10;82.00;;;;;;4861522;29;20029;-81
2023/02/15 12:06:00;;;;;;;19.00;14.23;;;8.10;82.10;;;;;;4874411;29;20094;-81
2023/02/15 12:08:44;;;;;;;22.40;14.45;;;8.20;82.20;;;;;;4849304;29;20117;-82
2023/02/15 12:11:15;;;;;;;18.70;14.68;;;8.30;82.30;;;;;;4851577;29;20072;-81
2023/02/15 12:14:11;;;;;;;19.50;13.98;;;8.30;82.20;;;;;;4876064;29;20037;-81
2023/02/15 12:16:48;;;;;;;20.52;15.52;;;8.40;82.40;;;;;;4842696;29;20085;-83
2023/02/15 12:19:28;;;;;;;21.23;14.40;;;8.40;82.30;;;;;;4861321;29;20029;-81
2023/02/15 12:21:55;;;;;;;20.58;14.50;;;8.50;82.40;;;;;;4861174;29;20029;-80
2023/02/15 12:24:25;;;;;;;21.40;15.32;;;8.60;82.40;;;;;;4853072;29;20053;-80
2023/02/15 12:27:05;;;;;;;20.52;14.73;;;8.60;82.40;;;;;;4861012;29;20539;-80
2023/02/15 12:29:39;;;;;;;20.33;14.70;;;8.70;82.60;;;;;;4838422;29;20038;-81
2023/02/15 12:32:09;;;;;;;20.52;15.57;;;8.70;82.50;;;;;;4845832;29;20030;-80
2023/02/15 12:34:41;;;;;;;21.00;15.57;;;8.80;82.50;;;;;;4849274;29;20050;-80
2023/02/15 12:37:17;;;;;;;18.80;14.80;;;8.90;82.70;;;;;;4865807;29;20033;-79
2023/02/15 12:39:55;;;;;;;20.27;15.80;;;9.00;82.80;;;;;;4845713;29;20077;-81
2023/02/15 12:42:21;;;;;;;21.58;16.13;;;9.00;82.80;;;;;;4860999;29;20113;-79
2023/02/15 12:44:53;;;;;;;23.40;15.07;;;9.10;82.70;;;;;;4859024;29;20036;-79
2023/02/15 12:47:20;;;;;;;19.75;15.07;;;9.10;82.90;;;;;;4843531;29;20025;-79
2023/02/15 12:50:04;;;;;;;21.98;16.35;;;9.20;83.40;;;;;;4859398;29;20108;-80
2023/02/15 12:52:30;;;;;;;20.88;16.15;;;9.30;83.00;;;;;;4844894;29;20037;-79
2023/02/15 12:55:11;;;;;;;20.27;15.50;;;9.30;83.50;;;;;;4846134;29;20038;-79
2023/02/15 12:57:37;;;;;;;21.08;15.35;;;9.40;83.00;;;;;;4843784;29;20041;-79
2023/02/15 13:00:25;;;;;;;19.10;14.60;;;9.50;82.90;;;;;;4858443;29;20034;-79
2023/02/15 13:02:56;;;;;;;20.20;14.85;;;9.50;83.00;;;;;;4870779;29;20022;-79
2023/02/15 13:05:31;;;;;;;20.65;15.68;;;9.60;83.00;;;;;;4843740;29;20048;-78
2023/02/15 13:08:02;;;;;;;;;;;9.60;83.10;;;;;;4856541;29;20036;-79
2023/02/15 13:10:33;;;;;;;17.92;13.60;;;9.70;82.70;;;;;;4860684;29;19912;-78
2023/02/15 13:13:02;;;;;;;17.95;14.30;;;9.80;82.70;;;;;;4849037;29;20061;-79
2023/02/15 13:15:39;;;;;;;20.83;15.68;;;9.80;82.80;;;;;;4844348;29;20113;-79
2023/02/15 13:18:13;;;;;;;19.75;14.98;;;9.90;82.90;;;;;;4856188;29;20117;-81
2023/02/15 13:20:40;;;;;;;20.85;15.93;;;10.00;83.10;;;;;;4870079;29;20036;-81
2023/02/15 13:23:24;;;;;;;22.65;16.48;;;10.00;83.10;;;;;;4860638;29;20025;-80
2023/02/15 13:25:51;;;;;;;21.10;16.88;;;10.10;83.20;;;;;;4870260;29;20486;-82
2023/02/15 13:28:22;;;;;;;21.67;16.50;;;10.10;83.10;;;;;;4838970;29;20379;-80